createdAt,value
2023-05-14T00:00:48.499Z,95463
2023-05-14T00:01:57.255Z,95460
2023-05-14T00:03:05.987Z,95461
2023-05-14T00:04:15.552Z,95460
2023-05-14T00:05:25.218Z,95461
2023-05-14T00:06:34.888Z,95458
2023-05-14T00:07:44.600Z,95457
2023-05-14T00:08:54.242Z,95457
2023-05-14T00:10:02.892Z,95456
2023-05-14T00:11:12.562Z,95460
2023-05-14T00:12:21.207Z,95455
2023-05-14T00:13:30.877Z,95452
2023-05-14T00:14:39.525Z,95454
2023-05-14T00:15:47.254Z,95456
2023-05-14T00:16:56.934Z,95455
2023-05-14T00:18:06.552Z,95455
2023-05-14T00:19:15.211Z,95455
2023-05-14T00:20:25.069Z,95454
2023-05-14T00:21:33.532Z,95446
2023-05-14T00:22:42.183Z,95449
2023-05-14T00:23:51.852Z,95449
2023-05-14T00:25:00.537Z,95446
2023-05-14T00:26:09.235Z,95441
2023-05-14T00:27:18.912Z,95445
2023-05-14T00:28:28.591Z,95444
2023-05-14T00:29:38.282Z,95444
2023-05-14T00:30:47.979Z,95443
2023-05-14T00:31:56.636Z,95441
2023-05-14T00:33:06.346Z,95445
2023-05-14T00:34:15.061Z,95442
2023-05-14T00:35:23.776Z,95444
2023-05-14T00:36:33.431Z,95444
2023-05-14T00:37:43.091Z,95442
2023-05-14T00:38:52.794Z,95443
2023-05-14T00:40:01.476Z,95444
2023-05-14T00:41:10.126Z,95443
2023-05-14T00:42:19.784Z,95446
2023-05-14T00:43:29.486Z,95446
2023-05-14T00:44:39.186Z,95446
2023-05-14T00:45:48.868Z,95442
2023-05-14T00:46:57.524Z,95445
2023-05-14T00:48:07.225Z,95446
2023-05-14T00:49:16.932Z,95447
2023-05-14T00:50:25.752Z,95445
2023-05-14T00:51:35.253Z,95442
2023-05-14T00:52:42.881Z,95443
2023-05-14T00:53:51.553Z,95444
2023-05-14T00:55:01.214Z,95442
2023-05-14T00:56:09.888Z,95440
2023-05-14T00:57:18.611Z,95445
2023-05-14T00:58:27.332Z,95436
2023-05-14T00:59:35.981Z,95435
2023-05-14T01:00:45.672Z,95438
2023-05-14T01:01:54.267Z,95439
2023-05-14T01:03:04.027Z,95439
2023-05-14T01:04:13.681Z,95439
2023-05-14T01:05:22.355Z,95436
2023-05-14T01:06:31.989Z,95438
2023-05-14T01:07:41.727Z,95435
2023-05-14T01:08:51.371Z,95433
2023-05-14T01:10:01.041Z,95434
2023-05-14T01:11:08.676Z,95436
2023-05-14T01:12:18.385Z,95438
2023-05-14T01:13:28.058Z,95437
2023-05-14T01:14:37.730Z,95434
2023-05-14T01:15:47.446Z,95436
2023-05-14T01:16:56.174Z,95435
2023-05-14T01:18:04.836Z,95431
2023-05-14T01:19:14.513Z,95431
2023-05-14T01:20:24.356Z,95433
2023-05-14T01:21:33.871Z,95433
2023-05-14T01:22:42.516Z,95431
2023-05-14T01:23:51.205Z,95429
2023-05-14T01:25:00.897Z,95429
2023-05-14T01:26:08.539Z,95426
2023-05-14T01:27:18.220Z,95424
2023-05-14T01:28:26.884Z,95426
2023-05-14T01:29:36.622Z,95422
2023-05-14T01:30:46.330Z,95428
2023-05-14T01:31:54.001Z,95422
2023-05-14T01:33:03.758Z,95423
2023-05-14T01:34:13.327Z,95423
2023-05-14T01:35:23.044Z,95417
2023-05-14T01:36:32.690Z,95413
2023-05-14T01:37:42.330Z,95415
2023-05-14T01:38:50.982Z,95410
2023-05-14T01:40:00.658Z,95414
2023-05-14T01:41:10.308Z,95405
2023-05-14T01:42:18.961Z,95411
2023-05-14T01:43:28.657Z,95407
2023-05-14T01:44:37.366Z,95407
2023-05-14T01:45:46.096Z,95409
2023-05-14T01:46:54.683Z,95404
2023-05-14T01:48:03.464Z,95408
2023-05-14T01:49:13.038Z,95404
2023-05-14T01:50:21.809Z,95407
2023-05-14T01:51:30.340Z,95400
2023-05-14T01:52:40.005Z,95406
2023-05-14T01:53:47.686Z,95400
2023-05-14T01:54:56.335Z,95403
2023-05-14T01:56:04.982Z,95401
2023-05-14T01:57:14.683Z,95395
2023-05-14T01:58:24.374Z,95397
2023-05-14T01:59:32.019Z,95400
2023-05-14T02:00:40.684Z,95400
2023-05-14T02:01:50.379Z,95399
2023-05-14T02:02:59.083Z,95399
2023-05-14T02:04:07.776Z,95397
2023-05-14T02:05:16.482Z,95401
2023-05-14T02:06:25.117Z,95396
2023-05-14T02:07:34.789Z,95398
2023-05-14T02:08:43.480Z,95397
2023-05-14T02:09:53.106Z,95398
2023-05-14T02:11:01.767Z,95397
2023-05-14T02:12:11.479Z,95394
2023-05-14T02:13:20.138Z,95404
2023-05-14T02:14:28.796Z,95398
2023-05-14T02:15:38.514Z,95401
2023-05-14T02:16:48.164Z,95401
2023-05-14T02:17:55.884Z,95403
2023-05-14T02:19:03.522Z,95402
2023-05-14T02:20:13.153Z,95399
2023-05-14T02:21:21.831Z,95400
2023-05-14T02:22:31.521Z,95400
2023-05-14T02:23:41.811Z,95400
2023-05-14T02:24:48.898Z,95400
2023-05-14T02:25:58.560Z,95398
2023-05-14T02:27:06.234Z,95398
2023-05-14T02:28:14.892Z,95397
2023-05-14T02:29:24.541Z,95399
2023-05-14T02:30:33.280Z,95398
2023-05-14T02:31:42.983Z,95400
2023-05-14T02:32:52.790Z,95396
2023-05-14T02:34:02.291Z,95403
2023-05-14T02:35:12.011Z,95395
2023-05-14T02:36:21.728Z,95397
2023-05-14T02:37:31.375Z,95397
2023-05-14T02:38:41.011Z,95400
2023-05-14T02:39:50.696Z,95399
2023-05-14T02:41:00.377Z,95397
2023-05-14T02:42:10.046Z,95399
2023-05-14T02:43:19.727Z,95396
2023-05-14T02:44:28.337Z,95399
2023-05-14T02:45:36.006Z,95397
2023-05-14T02:46:45.701Z,95398
2023-05-14T02:47:55.362Z,95397
2023-05-14T02:49:04.002Z,95397
2023-05-14T02:50:12.722Z,95396
2023-05-14T02:51:22.342Z,95391
2023-05-14T02:52:30.987Z,95395
2023-05-14T02:53:40.680Z,95390
2023-05-14T02:54:49.353Z,95391
2023-05-14T02:55:59.047Z,95392
2023-05-14T02:57:08.747Z,95389
2023-05-14T02:58:17.436Z,95387
2023-05-14T02:59:28.117Z,95384
2023-05-14T03:00:36.786Z,95389
2023-05-14T03:01:45.466Z,95384
2023-05-14T03:02:55.178Z,95385
2023-05-14T03:04:02.768Z,95384
2023-05-14T03:05:12.408Z,95390
2023-05-14T03:06:23.048Z,95388
2023-05-14T03:07:31.734Z,95382
2023-05-14T03:08:40.431Z,95383
2023-05-14T03:09:49.101Z,95380
2023-05-14T03:10:58.764Z,95383
2023-05-14T03:12:08.455Z,95381
2023-05-14T03:13:17.160Z,95382
2023-05-14T03:14:26.814Z,95380
2023-05-14T03:15:35.470Z,95381
2023-05-14T03:16:44.139Z,95378
2023-05-14T03:17:53.860Z,95380
2023-05-14T03:19:01.502Z,95382
2023-05-14T03:20:11.159Z,95377
2023-05-14T03:21:20.800Z,95379
2023-05-14T03:22:29.466Z,95381
2023-05-14T03:23:39.125Z,95375
2023-05-14T03:24:48.773Z,95377
2023-05-14T03:25:58.426Z,95375
2023-05-14T03:27:08.124Z,95374
2023-05-14T03:28:16.820Z,95372
2023-05-14T03:29:26.455Z,95370
2023-05-14T03:30:35.148Z,95372
2023-05-14T03:31:44.838Z,95374
2023-05-14T03:32:54.546Z,95371
2023-05-14T03:34:03.186Z,95372
2023-05-14T03:35:12.837Z,95370
2023-05-14T03:36:21.511Z,95373
2023-05-14T03:37:29.152Z,95372
2023-05-14T03:38:38.811Z,95373
2023-05-14T03:39:47.469Z,95369
2023-05-14T03:40:56.164Z,95373
2023-05-14T03:42:06.861Z,95371
2023-05-14T03:43:15.520Z,95369
2023-05-14T03:44:25.197Z,95366
2023-05-14T03:45:34.852Z,95371
2023-05-14T03:46:44.547Z,95369
2023-05-14T03:47:53.427Z,95370
2023-05-14T03:49:02.960Z,95369
2023-05-14T03:50:12.557Z,95369
2023-05-14T03:51:22.254Z,95372
2023-05-14T03:52:30.915Z,95372
2023-05-14T03:53:40.567Z,95371
2023-05-14T03:54:50.225Z,95368
2023-05-14T03:55:58.924Z,95371
2023-05-14T03:57:07.574Z,95369
2023-05-14T03:58:16.248Z,95371
2023-05-14T03:59:25.898Z,95368
2023-05-14T04:00:35.704Z,95366
2023-05-14T04:01:44.301Z,95368
2023-05-14T04:02:53.987Z,95364
2023-05-14T04:04:03.654Z,95364
2023-05-14T04:05:13.303Z,95365
2023-05-14T04:06:22.957Z,95367
2023-05-14T04:07:31.616Z,95369
2023-05-14T04:08:40.265Z,95365
2023-05-14T04:09:49.943Z,95366
2023-05-14T04:10:59.580Z,95372
2023-05-14T04:12:09.224Z,95367
2023-05-14T04:13:18.868Z,95373
2023-05-14T04:14:28.599Z,95373
2023-05-14T04:15:37.251Z,95373
2023-05-14T04:16:45.972Z,95373
2023-05-14T04:17:55.559Z,95369
2023-05-14T04:19:05.308Z,95369
2023-05-14T04:20:13.910Z,95369
2023-05-14T04:21:22.528Z,95371
2023-05-14T04:22:32.195Z,95372
2023-05-14T04:23:39.910Z,95372
2023-05-14T04:24:48.582Z,95373
2023-05-14T04:25:58.226Z,95368
2023-05-14T04:27:07.907Z,95371
2023-05-14T04:28:17.584Z,95372
2023-05-14T04:29:25.253Z,95371
2023-05-14T04:30:33.904Z,95370
2023-05-14T04:31:43.622Z,95372
2023-05-14T04:32:52.322Z,95375
2023-05-14T04:34:00.974Z,95378
2023-05-14T04:35:09.628Z,95373
2023-05-14T04:36:19.294Z,95378
2023-05-14T04:37:28.972Z,95379
2023-05-14T04:38:36.680Z,95375
2023-05-14T04:39:46.368Z,95379
2023-05-14T04:40:56.050Z,95376
2023-05-14T04:42:04.738Z,95380
2023-05-14T04:43:14.416Z,95375
2023-05-14T04:44:23.070Z,95378
2023-05-14T04:45:34.227Z,95371
2023-05-14T04:46:42.390Z,95373
2023-05-14T04:47:50.062Z,95377
2023-05-14T04:48:58.718Z,95377
2023-05-14T04:50:08.379Z,95378
2023-05-14T04:51:17.008Z,95378
2023-05-14T04:52:25.680Z,95379
2023-05-14T04:53:35.353Z,95374
2023-05-14T04:54:45.154Z,95376
2023-05-14T04:55:54.682Z,95376
2023-05-14T04:57:03.391Z,95376
2023-05-14T04:58:12.026Z,95373
2023-05-14T04:59:21.691Z,95374
2023-05-14T05:00:30.364Z,95372
2023-05-14T05:01:40.123Z,95370
2023-05-14T05:02:48.715Z,95374
2023-05-14T05:03:58.417Z,95371
2023-05-14T05:05:08.046Z,95375
2023-05-14T05:06:17.743Z,95374
2023-05-14T05:07:27.395Z,95382
2023-05-14T05:08:37.058Z,95376
2023-05-14T05:09:44.745Z,95379
2023-05-14T05:10:54.428Z,95381
2023-05-14T05:12:04.102Z,95382
2023-05-14T05:13:12.788Z,95379
2023-05-14T05:14:22.421Z,95381
2023-05-14T05:15:32.114Z,95379
2023-05-14T05:16:41.784Z,95381
2023-05-14T05:17:50.514Z,95383
2023-05-14T05:19:00.146Z,95374
2023-05-14T05:20:09.754Z,95376
2023-05-14T05:21:19.438Z,95376
2023-05-14T05:22:29.077Z,95380
2023-05-14T05:23:37.751Z,95378
2023-05-14T05:24:48.589Z,95375
2023-05-14T05:25:57.063Z,95377
2023-05-14T05:27:05.744Z,95377
2023-05-14T05:28:15.363Z,95382
2023-05-14T05:29:25.079Z,95382
2023-05-14T05:30:34.745Z,95383
2023-05-14T05:31:43.426Z,95378
2023-05-14T05:32:53.085Z,95377
2023-05-14T05:34:02.796Z,95378
2023-05-14T05:35:12.458Z,95381
2023-05-14T05:36:21.153Z,95382
2023-05-14T05:37:29.779Z,95381
2023-05-14T05:38:39.471Z,95380
2023-05-14T05:39:49.172Z,95381
2023-05-14T05:40:57.866Z,95381
2023-05-14T05:42:06.544Z,95381
2023-05-14T05:43:15.197Z,95381
2023-05-14T05:44:24.908Z,95382
2023-05-14T05:45:33.539Z,95385
2023-05-14T05:46:42.248Z,95387
2023-05-14T05:47:51.915Z,95383
2023-05-14T05:49:00.597Z,95386
2023-05-14T05:50:10.280Z,95387
2023-05-14T05:51:18.930Z,95385
2023-05-14T05:52:28.627Z,95385
2023-05-14T05:53:38.318Z,95391
2023-05-14T05:54:45.965Z,95388
2023-05-14T05:55:55.621Z,95389
2023-05-14T05:57:05.308Z,95387
2023-05-14T05:58:13.993Z,95387
2023-05-14T05:59:22.691Z,95389
2023-05-14T06:00:32.353Z,95387
2023-05-14T06:01:41.018Z,95389
2023-05-14T06:02:50.705Z,95383
2023-05-14T06:03:59.349Z,95384
2023-05-14T06:05:09.013Z,95390
2023-05-14T06:06:18.635Z,95387
2023-05-14T06:07:27.331Z,95385
2023-05-14T06:08:37.136Z,95384
2023-05-14T06:09:46.661Z,95383
2023-05-14T06:10:56.360Z,95382
2023-05-14T06:12:06.008Z,95382
2023-05-14T06:13:15.669Z,95384
2023-05-14T06:14:25.323Z,95380
2023-05-14T06:15:34.974Z,95382
2023-05-14T06:16:43.673Z,95381
2023-05-14T06:17:53.338Z,95384
2023-05-14T06:19:02.996Z,95378
2023-05-14T06:20:12.622Z,95379
2023-05-14T06:21:22.303Z,95377
2023-05-14T06:22:31.946Z,95377
2023-05-14T06:23:40.600Z,95374
2023-05-14T06:24:50.227Z,95377
2023-05-14T06:25:58.947Z,95375
2023-05-14T06:27:08.591Z,95377
2023-05-14T06:28:17.252Z,95375
2023-05-14T06:29:25.956Z,95380
2023-05-14T06:30:35.649Z,95380
2023-05-14T06:31:45.346Z,95378
2023-05-14T06:32:54.966Z,95378
2023-05-14T06:34:04.644Z,95381
2023-05-14T06:35:12.350Z,95384
2023-05-14T06:36:22.004Z,95384
2023-05-14T06:37:30.647Z,95382
2023-05-14T06:38:41.330Z,95383
2023-05-14T06:39:51.058Z,95382
2023-05-14T06:41:00.673Z,95380
2023-05-14T06:42:10.328Z,95380
2023-05-14T06:43:19.988Z,95381
2023-05-14T06:44:29.691Z,95380
2023-05-14T06:45:40.350Z,95384
2023-05-14T06:46:50.014Z,95383
2023-05-14T06:47:59.914Z,95381
2023-05-14T06:49:09.433Z,95384
2023-05-14T06:50:17.025Z,95383
2023-05-14T06:51:25.663Z,95379
2023-05-14T06:52:36.330Z,95379
2023-05-14T06:53:44.995Z,95385
2023-05-14T06:54:54.733Z,95380
2023-05-14T06:56:04.353Z,95380
2023-05-14T06:57:13.002Z,95379
2023-05-14T06:58:22.685Z,95380
2023-05-14T06:59:31.382Z,95380
2023-05-14T07:00:40.155Z,95379
2023-05-14T07:01:49.926Z,95380
2023-05-14T07:02:59.469Z,95376
2023-05-14T07:04:08.160Z,95372
2023-05-14T07:05:16.792Z,95369
2023-05-14T07:06:25.467Z,95368
2023-05-14T07:07:35.152Z,95360
2023-05-14T07:08:43.849Z,95361
2023-05-14T07:09:53.495Z,95355
2023-05-14T07:11:02.223Z,95354
2023-05-14T07:12:11.888Z,95350
2023-05-14T07:13:21.542Z,95349
2023-05-14T07:14:32.198Z,95352
2023-05-14T07:15:40.872Z,95353
2023-05-14T07:16:49.587Z,95354
2023-05-14T07:17:58.296Z,95351
2023-05-14T07:19:07.929Z,95354
2023-05-14T07:20:15.532Z,95356
2023-05-14T07:21:25.246Z,95356
2023-05-14T07:22:34.967Z,95354
2023-05-14T07:23:42.622Z,95356
2023-05-14T07:24:50.342Z,95357
2023-05-14T07:25:59.936Z,95356
2023-05-14T07:27:09.659Z,95355
2023-05-14T07:28:19.295Z,95352
2023-05-14T07:29:27.962Z,95350
2023-05-14T07:30:36.614Z,95347
2023-05-14T07:31:46.387Z,95344
2023-05-14T07:32:55.008Z,95344
2023-05-14T07:34:04.611Z,95342
2023-05-14T07:35:14.318Z,95338
2023-05-14T07:36:22.033Z,95337
2023-05-14T07:37:31.679Z,95336
2023-05-14T07:38:39.337Z,95332
2023-05-14T07:39:49.003Z,95332
2023-05-14T07:40:58.676Z,95333
2023-05-14T07:42:06.349Z,95331
2023-05-14T07:43:15.998Z,95333
2023-05-14T07:44:25.644Z,95332
2023-05-14T07:45:34.339Z,95335
2023-05-14T07:46:44.004Z,95333
2023-05-14T07:47:51.767Z,95336
2023-05-14T07:49:01.305Z,95333
2023-05-14T07:50:10.988Z,95338
2023-05-14T07:51:20.653Z,95342
2023-05-14T07:52:30.307Z,95338
2023-05-14T07:53:38.985Z,95342
2023-05-14T07:54:50.076Z,95341
2023-05-14T07:55:58.274Z,95340
2023-05-14T07:57:06.927Z,95336
2023-05-14T07:58:15.581Z,95339
2023-05-14T07:59:25.282Z,95340
2023-05-14T08:00:33.914Z,95339
2023-05-14T08:01:42.591Z,95342
2023-05-14T08:02:51.299Z,95338
2023-05-14T08:04:00.009Z,95339
2023-05-14T08:05:09.608Z,95338
2023-05-14T08:06:19.289Z,95338
2023-05-14T08:07:28.919Z,95338
2023-05-14T08:08:37.614Z,95343
2023-05-14T08:09:46.290Z,95345
2023-05-14T08:10:54.970Z,95340
2023-05-14T08:12:04.594Z,95341
2023-05-14T08:13:14.268Z,95343
2023-05-14T08:14:23.979Z,95345
2023-05-14T08:15:33.664Z,95342
2023-05-14T08:16:42.326Z,95347
2023-05-14T08:17:52.001Z,95354
2023-05-14T08:19:00.706Z,95353
2023-05-14T08:20:09.356Z,95353
2023-05-14T08:21:19.003Z,95351
2023-05-14T08:22:27.645Z,95354
2023-05-14T08:23:37.364Z,95356
2023-05-14T08:24:47.021Z,95356
2023-05-14T08:25:55.672Z,95355
2023-05-14T08:27:05.339Z,95353
2023-05-14T08:28:13.033Z,95348
2023-05-14T08:29:21.677Z,95350
2023-05-14T08:30:31.376Z,95351
2023-05-14T08:31:40.037Z,95349
2023-05-14T08:32:49.729Z,95346
2023-05-14T08:33:58.409Z,95345
2023-05-14T08:35:08.048Z,95345
2023-05-14T08:36:17.768Z,95342
2023-05-14T08:37:25.470Z,95343
2023-05-14T08:38:35.143Z,95341
2023-05-14T08:39:43.792Z,95339
2023-05-14T08:40:52.452Z,95341
2023-05-14T08:42:02.142Z,95341
2023-05-14T08:43:11.810Z,95337
2023-05-14T08:44:20.436Z,95335
2023-05-14T08:45:30.095Z,95335
2023-05-14T08:46:38.832Z,95331
2023-05-14T08:47:48.515Z,95333
2023-05-14T08:48:58.120Z,95329
2023-05-14T08:50:06.803Z,95332
2023-05-14T08:51:16.473Z,95337
2023-05-14T08:52:25.164Z,95331
2023-05-14T08:53:33.816Z,95338
2023-05-14T08:54:43.458Z,95339
2023-05-14T08:55:52.131Z,95338
2023-05-14T08:57:01.826Z,95338
2023-05-14T08:58:11.480Z,95338
2023-05-14T08:59:20.152Z,95337
2023-05-14T09:00:29.844Z,95331
2023-05-14T09:01:39.545Z,95332
2023-05-14T09:02:49.235Z,95332
2023-05-14T09:03:58.900Z,95328
2023-05-14T09:05:06.518Z,95326
2023-05-14T09:06:16.204Z,95327
2023-05-14T09:07:25.913Z,95327
2023-05-14T09:08:35.560Z,95331
2023-05-14T09:09:44.298Z,95326
2023-05-14T09:10:53.984Z,95325
2023-05-14T09:12:02.614Z,95323
2023-05-14T09:13:10.305Z,95324
2023-05-14T09:14:19.937Z,95323
2023-05-14T09:15:29.603Z,95323
2023-05-14T09:16:38.258Z,95325
2023-05-14T09:17:46.906Z,95328
2023-05-14T09:18:56.606Z,95322
2023-05-14T09:20:06.296Z,95323
2023-05-14T09:21:15.918Z,95323
2023-05-14T09:22:25.596Z,95322
2023-05-14T09:23:34.244Z,95319
2023-05-14T09:24:44.020Z,95321
2023-05-14T09:25:51.682Z,95322
2023-05-14T09:27:01.341Z,95323
2023-05-14T09:28:10.007Z,95324
2023-05-14T09:29:19.700Z,95322
2023-05-14T09:30:29.348Z,95324
2023-05-14T09:31:37.085Z,95324
2023-05-14T09:32:46.648Z,95321
2023-05-14T09:33:56.343Z,95323
2023-05-14T09:35:04.994Z,95319
2023-05-14T09:36:13.669Z,95323
2023-05-14T09:37:23.308Z,95324
2023-05-14T09:38:32.991Z,95324
2023-05-14T09:39:42.762Z,95328
2023-05-14T09:40:51.430Z,95327
2023-05-14T09:42:01.076Z,95331
2023-05-14T09:43:10.751Z,95335
2023-05-14T09:44:19.387Z,95332
2023-05-14T09:45:27.027Z,95335
2023-05-14T09:46:36.700Z,95333
2023-05-14T09:47:46.461Z,95334
2023-05-14T09:48:56.069Z,95335
2023-05-14T09:50:03.746Z,95327
2023-05-14T09:51:12.364Z,95321
2023-05-14T09:52:22.093Z,95327
2023-05-14T09:53:31.697Z,95319
2023-05-14T09:54:41.336Z,95316
2023-05-14T09:55:50.978Z,95318
2023-05-14T09:57:00.649Z,95316
2023-05-14T09:58:10.308Z,95316
2023-05-14T09:59:18.956Z,95322
2023-05-14T10:00:28.590Z,95317
2023-05-14T10:01:38.319Z,95321
2023-05-14T10:02:46.982Z,95317
2023-05-14T10:03:55.619Z,95317
2023-05-14T10:05:05.281Z,95318
2023-05-14T10:06:15.002Z,95316
2023-05-14T10:07:24.689Z,95317
2023-05-14T10:08:33.349Z,95311
2023-05-14T10:09:41.974Z,95317
2023-05-14T10:10:51.693Z,95310
2023-05-14T10:11:59.359Z,95319
2023-05-14T10:13:08.056Z,95317
2023-05-14T10:14:16.775Z,95322
2023-05-14T10:15:26.457Z,95318
2023-05-14T10:16:35.256Z,95318
2023-05-14T10:17:43.819Z,95319
2023-05-14T10:18:54.526Z,95323
2023-05-14T10:20:03.203Z,95318
2023-05-14T10:21:11.909Z,95320
2023-05-14T10:22:21.562Z,95322
2023-05-14T10:23:31.246Z,95322
2023-05-14T10:24:40.970Z,95327
2023-05-14T10:25:50.761Z,95323
2023-05-14T10:26:59.460Z,95328
2023-05-14T10:28:09.165Z,95321
2023-05-14T10:29:18.830Z,95322
2023-05-14T10:30:28.625Z,95322
2023-05-14T10:31:38.390Z,95328
2023-05-14T10:32:47.058Z,95326
2023-05-14T10:33:57.964Z,95324
2023-05-14T10:35:06.439Z,95328
2023-05-14T10:36:14.138Z,95324
2023-05-14T10:37:22.794Z,95327
2023-05-14T10:38:32.521Z,95329
2023-05-14T10:39:41.205Z,95333
2023-05-14T10:40:52.883Z,95332
2023-05-14T10:42:00.558Z,95333
2023-05-14T10:43:09.233Z,95331
2023-05-14T10:44:18.961Z,95334
2023-05-14T10:45:28.634Z,95331
2023-05-14T10:46:38.327Z,95335
2023-05-14T10:47:47.988Z,95331
2023-05-14T10:48:57.649Z,95327
2023-05-14T10:50:07.313Z,95327
2023-05-14T10:51:16.016Z,95330
2023-05-14T10:52:25.684Z,95327
2023-05-14T10:53:35.363Z,95327
2023-05-14T10:54:44.004Z,95325
2023-05-14T10:55:53.726Z,95324
2023-05-14T10:57:03.358Z,95324
2023-05-14T10:58:12.028Z,95324
2023-05-14T10:59:20.676Z,95324
2023-05-14T11:00:29.340Z,95326
2023-05-14T11:01:39.020Z,95325
2023-05-14T11:02:48.776Z,95326
2023-05-14T11:03:57.440Z,95328
2023-05-14T11:05:07.089Z,95322
2023-05-14T11:06:16.769Z,95323
2023-05-14T11:07:25.598Z,95321
2023-05-14T11:08:35.254Z,95320
2023-05-14T11:09:43.897Z,95323
2023-05-14T11:10:53.563Z,95322
2023-05-14T11:12:02.349Z,95323
2023-05-14T11:13:11.001Z,95318
2023-05-14T11:14:20.650Z,95315
2023-05-14T11:15:28.345Z,95312
2023-05-14T11:16:37.090Z,95309
2023-05-14T11:17:46.772Z,95311
2023-05-14T11:18:55.443Z,95306
2023-05-14T11:20:05.082Z,95306
2023-05-14T11:21:13.870Z,95306
2023-05-14T11:22:23.478Z,95306
2023-05-14T11:23:33.186Z,95303
2023-05-14T11:24:41.840Z,95299
2023-05-14T11:25:51.554Z,95299
2023-05-14T11:27:01.207Z,95298
2023-05-14T11:28:09.908Z,95297
2023-05-14T11:29:19.568Z,95299
2023-05-14T11:30:28.278Z,95297
2023-05-14T11:31:38.017Z,95299
2023-05-14T11:32:47.728Z,95293
2023-05-14T11:33:57.317Z,95298
2023-05-14T11:35:07.008Z,95299
2023-05-14T11:36:16.663Z,95298
2023-05-14T11:37:25.458Z,95295
2023-05-14T11:38:35.141Z,95295
2023-05-14T11:39:43.876Z,95292
2023-05-14T11:40:53.578Z,95290
2023-05-14T11:42:02.236Z,95291
2023-05-14T11:43:10.940Z,95289
2023-05-14T11:44:19.660Z,95293
2023-05-14T11:45:29.313Z,95289
2023-05-14T11:46:38.033Z,95288
2023-05-14T11:47:46.754Z,95288
2023-05-14T11:48:56.418Z,95289
2023-05-14T11:50:07.282Z,95280
2023-05-14T11:51:15.704Z,95284
2023-05-14T11:52:24.396Z,95280
2023-05-14T11:53:33.132Z,95283
2023-05-14T11:54:42.798Z,95283
2023-05-14T11:55:51.452Z,95280
2023-05-14T11:57:00.154Z,95275
2023-05-14T11:58:08.807Z,95274
2023-05-14T11:59:17.509Z,95265
2023-05-14T12:00:27.247Z,95266
2023-05-14T12:01:34.874Z,95265
2023-05-14T12:02:44.542Z,95267
2023-05-14T12:03:54.317Z,95268
2023-05-14T12:05:01.914Z,95261
2023-05-14T12:06:11.565Z,95258
2023-05-14T12:07:20.255Z,95260
2023-05-14T12:08:28.954Z,95258
2023-05-14T12:09:38.632Z,95254
2023-05-14T12:10:48.278Z,95254
2023-05-14T12:11:56.961Z,95258
2023-05-14T12:13:06.645Z,95255
2023-05-14T12:14:16.334Z,95252
2023-05-14T12:15:25.990Z,95251
2023-05-14T12:16:37.731Z,95244
2023-05-14T12:17:44.436Z,95251
2023-05-14T12:18:54.050Z,95248
2023-05-14T12:20:02.669Z,95241
2023-05-14T12:21:11.318Z,95241
2023-05-14T12:22:20.142Z,95240
2023-05-14T12:23:29.809Z,95242
2023-05-14T12:24:39.493Z,95237
2023-05-14T12:25:49.150Z,95234
2023-05-14T12:26:58.836Z,95231
2023-05-14T12:28:08.485Z,95229
2023-05-14T12:29:17.205Z,95225
2023-05-14T12:30:26.831Z,95226
2023-05-14T12:31:36.628Z,95229
2023-05-14T12:32:45.291Z,95222
2023-05-14T12:33:53.901Z,95222
2023-05-14T12:35:03.554Z,95227
2023-05-14T12:36:21.573Z,95231
2023-05-14T12:37:23.901Z,95225
2023-05-14T12:38:31.539Z,95227
2023-05-14T12:39:40.181Z,95224
2023-05-14T12:40:48.865Z,95213
2023-05-14T12:41:58.526Z,95214
2023-05-14T12:43:08.159Z,95214
2023-05-14T12:44:17.838Z,95213
2023-05-14T12:45:26.532Z,95207
2023-05-14T12:46:35.192Z,95210
2023-05-14T12:47:42.910Z,95206
2023-05-14T12:48:53.410Z,95206
2023-05-14T12:50:02.210Z,95196
2023-05-14T12:51:11.906Z,95199
2023-05-14T12:52:33.257Z,95199
2023-05-14T12:53:32.181Z,95200
2023-05-14T12:54:42.879Z,95199
2023-05-14T12:55:51.514Z,95199
2023-05-14T12:57:00.158Z,95200
2023-05-14T12:58:09.816Z,95187
2023-05-14T12:59:19.520Z,95192
2023-05-14T13:00:29.193Z,95194
2023-05-14T13:01:38.861Z,95190
2023-05-14T13:02:47.524Z,95196
2023-05-14T13:03:57.237Z,95192
2023-05-14T13:05:06.902Z,95191
2023-05-14T13:06:16.564Z,95188
2023-05-14T13:07:26.206Z,95191
2023-05-14T13:08:34.902Z,95194
2023-05-14T13:09:43.563Z,95189
2023-05-14T13:10:53.280Z,95189
2023-05-14T13:12:01.941Z,95185
2023-05-14T13:13:11.607Z,95179
2023-05-14T13:14:21.312Z,95181
2023-05-14T13:15:30.002Z,95184
2023-05-14T13:16:39.650Z,95176
2023-05-14T13:17:47.355Z,95175
2023-05-14T13:18:56.113Z,95171
2023-05-14T13:20:05.795Z,95172
2023-05-14T13:21:14.396Z,95170
2023-05-14T13:22:24.054Z,95168
2023-05-14T13:23:33.767Z,95153
2023-05-14T13:24:42.397Z,95163
2023-05-14T13:25:52.099Z,95163
2023-05-14T13:27:00.761Z,95161
2023-05-14T13:28:09.507Z,95162
2023-05-14T13:29:19.182Z,95156
2023-05-14T13:30:27.871Z,95152
2023-05-14T13:31:36.727Z,95156
2023-05-14T13:32:45.320Z,95137
2023-05-14T13:33:53.973Z,95147
2023-05-14T13:35:03.620Z,95152
2023-05-14T13:36:11.309Z,95161
2023-05-14T13:37:20.021Z,95159
2023-05-14T13:38:29.672Z,95152
2023-05-14T13:39:39.392Z,95163
2023-05-14T13:40:46.964Z,95160
2023-05-14T13:41:56.659Z,95159
2023-05-14T13:43:06.303Z,95159
2023-05-14T13:44:15.957Z,95156
2023-05-14T13:45:24.764Z,95158
2023-05-14T13:46:34.324Z,95171
2023-05-14T13:47:43.968Z,95163
2023-05-14T13:48:54.606Z,95154
2023-05-14T13:50:04.323Z,95150
2023-05-14T13:51:14.062Z,95151
2023-05-14T13:52:22.724Z,95152
2023-05-14T13:53:32.394Z,95143
2023-05-14T13:54:41.037Z,95146
2023-05-14T13:55:50.764Z,95146
2023-05-14T13:57:00.400Z,95138
2023-05-14T13:58:09.050Z,95136
2023-05-14T13:59:18.705Z,95139
2023-05-14T14:00:28.407Z,95138
2023-05-14T14:01:38.102Z,95119
2023-05-14T14:02:47.772Z,95134
2023-05-14T14:03:56.372Z,95132
2023-05-14T14:05:05.089Z,95124
2023-05-14T14:06:14.716Z,95132
2023-05-14T14:07:24.414Z,95131
2023-05-14T14:08:34.036Z,95131
2023-05-14T14:09:47.200Z,95125
2023-05-14T14:10:56.841Z,95127
2023-05-14T14:12:05.524Z,95129
2023-05-14T14:13:15.175Z,95129
2023-05-14T14:14:23.874Z,95129
2023-05-14T14:15:33.543Z,95126
2023-05-14T14:16:42.300Z,95131
2023-05-14T14:17:50.963Z,95128
2023-05-14T14:18:59.622Z,95127
2023-05-14T14:20:08.323Z,95122
2023-05-14T14:21:18.013Z,95116
2023-05-14T14:22:28.153Z,95114
2023-05-14T14:23:35.310Z,95116
2023-05-14T14:24:44.989Z,95119
2023-05-14T14:25:53.600Z,95114
2023-05-14T14:27:03.276Z,95112
2023-05-14T14:28:12.968Z,95108
2023-05-14T14:29:21.609Z,95118
2023-05-14T14:30:31.266Z,95129
2023-05-14T14:31:39.922Z,95120
2023-05-14T14:32:49.650Z,95118
2023-05-14T14:33:59.334Z,95099
2023-05-14T14:35:09.008Z,95097
2023-05-14T14:36:18.789Z,95089
2023-05-14T14:37:28.849Z,95090
2023-05-14T14:38:38.540Z,95097
2023-05-14T14:39:48.175Z,95095
2023-05-14T14:40:56.829Z,95093
2023-05-14T14:42:05.494Z,95099
2023-05-14T14:43:15.166Z,95116
2023-05-14T14:44:21.814Z,95110
2023-05-14T14:45:31.494Z,95105
2023-05-14T14:46:41.101Z,95106
2023-05-14T14:47:50.840Z,95098
2023-05-14T14:49:00.456Z,95099
2023-05-14T14:50:09.232Z,95100
2023-05-14T14:51:18.816Z,95098